Date,TemperatureHighF,TemperatureAvgF,TemperatureLowF,DewpointHighF,DewpointAvgF,DewpointLowF,HumidityHigh,HumidityAvg,HumidityLow,PressureMaxIn,PressureMinIn,WindSpeedMaxMPH,WindSpeedAvgMPH,GustSpeedMaxMPH,PrecipitationSumIn
2013-1-1,59,54,49,48,38,30,77,55,36,30.12,29.91,11,2,11,0.00
2013-1-2,55,47,40,52,40,26,98,77,56,30.15,29.85,14,4,14,0.24
2013-1-3,42,40,32,34,26,21,78,58,51,30.21,30.09,8,2,8,0.08
2013-1-4,52,37,27,33,22,18,87,57,36,30.27,30.15,10,2,10,0.08
2013-1-5,52,39,27,28,21,13,73,50,36,30.33,30.21,9,2,9,0.08
2013-1-6,48,45,36,42,33,26,84,65,42,30.24,30.06,8,1,8,0.08
2013-1-7,54,44,36,42,27,23,83,54,36,30.42,30.09,14,3,14,0.08
2013-1-8,63,51,38,43,33,20,84,52,35,30.39,30.30,10,2,10,0.08
2013-1-9,71,56,43,53,44,39,95,68,35,30.39,30.30,6,1,6,0.00
2013-1-10,64,55,47,54,40,24,96,62,34,30.47,30.36,13,3,13,0.00
2013-1-11,68,59,48,60,47,27,98,67,41,30.39,30.12,13,3,13,0.35
2013-1-12,72,61,54,63,55,48,98,83,43,30.15,30.09,6,0,6,0.00
2013-1-13,71,60,53,66,54,46,98,84,42,30.15,30.09,7,1,7,0.00
2013-1-14,72,63,58,65,55,47,96,77,42,30.18,30.09,9,1,9,0.00
2013-1-15,66,59,54,60,54,44,98,87,47,30.18,30.06,8,2,8,0.04
2013-1-16,69,61,55,64,54,46,98,82,44,30.06,29.94,10,1,10,0.00
2013-1-17,72,57,41,68,52,37,98,86,44,29.97,29.80,17,3,17,0.31
2013-1-18,49,40,31,38,24,15,85,56,37,30.50,29.91,17,4,17,0.00
2013-1-19,60,41,27,34,25,14,80,55,35,30.47,30.15,8,2,8,0.00
2013-1-20,66,51,38,46,36,27,90,61,33,30.15,29.94,12,1,12,0.00
2013-1-21,63,50,34,36,29,20,68,45,35,30.03,29.85,8,2,9,0.00
2013-1-22,52,39,24,27,16,4,42,39,37,30.24,29.88,15,3,232,0.00
2013-1-23,42,32,22,19,10,3,44,41,38,30.33,30.09,10,2,13,0.00
2013-1-24,49,37,25,26,15,5,43,40,38,30.45,29.94,27,7,27,0.00
2013-1-25,39,30,20,30,14,1,89,53,40,30.45,30.06,8,2,8,0.20
2013-1-26,41,34,28,30,23,20,89,68,44,30.33,30.06,12,3,12,0.00
2013-1-27,43,34,27,28,19,12,88,57,38,30.53,30.33,17,3,17,0.00
2013-1-28,57,42,28,55,30,14,94,63,47,30.47,30.24,8,2,8,0.00
2013-1-29,70,59,50,61,50,41,98,76,36,30.24,30.09,13,2,232,0.04
2013-1-30,71,64,56,64,53,46,98,70,41,30.12,29.65,23,6,23,0.00
2013-1-31,67,53,42,59,31,19,82,44,35,30.03,29.53,25,6,25,0.16
2013-2-1,53,42,24,27,18,4,42,38,36,30.36,29.97,24,4,24,0.00
2013-2-2,44,31,18,28,12,0,61,44,38,30.36,30.00,8,2,8,0.00
2013-2-3,53,43,31,32,23,15,70,47,36,30.00,29.83,15,3,15,0.00
2013-2-4,49,39,26,24,18,11,59,44,37,30.12,29.94,10,2,10,0.00
2013-2-5,60,51,38,39,30,20,66,46,35,30.03,29.88,10,2,10,0.00
2013-2-6,66,50,38,50,34,29,91,59,33,30.24,29.94,10,2,10,0.00
2013-2-7,60,52,45,53,41,33,98,71,38,30.24,29.85,14,5,15,1.89
2013-2-8,60,52,46,60,40,28,98,68,43,29.97,29.47,21,6,21,0.91
2013-2-9,54,42,28,28,19,11,54,40,36,30.36,29.97,16,4,16,0.00
2013-2-10,54,42,26,37,25,13,66,52,36,30.45,30.30,10,2,10,0.00
2013-2-11,61,58,48,60,53,37,98,84,53,30.30,29.94,15,4,15,0.20
2013-2-12,65,57,51,60,39,30,96,51,33,30.06,29.94,10,2,10,0.04
2013-2-13,56,52,47,55,50,40,98,93,65,30.00,29.65,15,3,15,0.35
2013-2-14,52,46,37,40,28,24,85,51,37,30.09,29.80,11,2,11,0.20
2013-2-15,57,45,34,45,30,25,97,58,35,30.09,29.97,10,2,10,0.20
2013-2-16,51,41,33,39,31,27,94,71,40,29.97,29.68,13,4,13,0.20
2013-2-17,38,32,25,32,17,6,94,58,39,30.27,29.83,23,5,23,0.20
2013-2-18,47,37,20,23,16,4,53,42,37,30.45,30.27,10,2,10,0.20
2013-2-19,59,52,38,53,41,22,94,68,42,30.33,29.94,15,3,15,0.24
2013-2-20,58,46,33,36,26,19,75,47,35,30.12,29.97,13,3,232,0.20
2013-2-21,58,43,30,30,21,10,62,41,35,30.27,30.09,10,3,10,0.20
2013-2-22,50,44,38,46,27,16,90,52,39,30.33,30.09,11,3,11,0.20
2013-2-23,61,51,47,61,50,46,98,97,85,30.09,29.85,11,2,11,0.71
2013-2-24,63,51,41,55,42,34,98,78,35,30.03,29.80,12,2,12,0.71
2013-2-25,45,42,37,43,23,18,98,49,39,30.18,30.00,15,4,231,0.71
2013-2-26,66,55,40,65,51,23,98,86,49,30.12,29.65,27,6,27,0.75
2013-2-27,61,53,48,57,36,26,98,57,35,29.85,29.65,18,4,18,0.71
2013-2-28,58,49,38,33,27,18,58,43,35,29.88,29.74,13,3,13,0.71
2013-3-1,55,44,31,29,22,16,60,42,36,29.94,29.83,13,2,13,0.00
2013-3-2,53,42,30,30,21,14,70,45,36,29.94,29.83,11,2,11,0.00
2013-3-3,50,38,29,24,17,10,53,42,37,30.00,29.85,15,3,15,0.00
2013-3-4,50,36,28,24,14,8,44,40,37,30.18,29.97,15,4,15,0.00
2013-3-5,60,50,30,48,27,10,69,42,35,30.18,29.74,12,3,12,0.04
2013-3-6,58,47,41,53,26,20,83,44,37,29.97,29.59,28,10,28,0.12
2013-3-7,56,44,36,29,21,16,46,39,35,30.24,29.97,20,5,20,0.00
2013-3-8,55,45,35,29,21,14,42,38,36,30.30,30.15,22,6,22,0.00
2013-3-9,62,48,34,34,25,16,55,39,34,30.39,30.30,16,4,16,0.00
2013-3-10,60,45,28,38,28,16,82,52,35,30.39,30.33,10,2,232,0.00
2013-3-11,67,57,44,49,40,36,92,58,35,30.36,30.12,13,4,13,0.00
2013-3-12,64,60,57,63,55,42,98,84,51,30.12,29.91,13,4,13,0.79
2013-3-13,62,53,44,56,28,22,91,40,34,30.18,30.00,15,4,15,0.00
2013-3-14,53,42,33,27,19,12,45,39,36,30.33,30.18,14,4,14,0.00
2013-3-15,57,46,28,33,24,11,53,41,35,30.30,30.09,13,3,13,0.00
2013-3-16,68,59,53,38,36,33,53,43,33,30.09,29.88,12,3,12,0.00
2013-3-17,62,54,47,41,35,27,66,48,36,30.27,30.00,15,4,17,0.00
2013-3-18,66,55,47,51,40,30,88,57,36,30.27,30.03,15,4,15,0.00
2013-3-19,69,58,48,58,44,35,98,66,33,30.12,29.88,14,3,14,0.35
2013-3-20,58,49,38,35,24,16,60,37,35,30.24,29.94,12,3,12,0.00
2013-3-21,55,42,29,33,22,12,83,46,36,30.06,29.83,17,4,17,0.00
2013-3-22,49,38,24,24,16,5,44,40,37,30.21,30.06,12,2,12,0.00
2013-3-23,57,46,35,30,24,16,64,44,35,30.18,30.06,7,1,7,0.00
2013-3-24,57,48,39,53,40,24,97,75,38,30.09,29.59,22,5,22,0.51
2013-3-25,51,45,38,42,30,16,91,59,37,29.94,29.65,20,4,20,0.00
2013-3-26,50,43,34,25,20,14,46,39,37,30.21,29.94,15,4,15,0.00
2013-3-27,56,45,34,29,22,15,48,39,35,30.36,30.21,16,5,16,0.00
2013-3-28,58,44,30,30,21,11,46,39,35,30.42,30.30,15,4,15,0.00
2013-3-29,61,47,29,33,23,12,53,40,35,30.47,30.36,13,2,13,0.00
2013-3-30,64,53,42,35,31,26,63,43,34,30.42,25.42,13,2,13,0.00
2013-3-31,66,57,44,50,41,33,89,57,36,30.33,30.06,17,3,17,0.04
2013-4-1,69,59,52,58,51,43,91,77,39,30.12,30.00,9,2,9,0.04
2013-4-2,61,51,42,50,31,25,93,48,35,30.33,30.12,13,4,15,0.00
2013-4-3,56,48,40,42,28,22,83,48,35,30.47,30.30,12,3,12,0.00
2013-4-4,61,49,42,61,34,22,98,59,37,30.50,30.00,17,5,17,1.42
2013-4-5,62,51,40,61,40,30,98,71,39,30.21,29.94,15,4,15,0.08
2013-4-6,62,50,38,45,31,25,95,52,34,30.50,30.21,17,4,17,0.00
2013-4-7,67,56,39,46,37,27,93,52,35,30.50,30.39,10,4,10,0.00
2013-4-8,74,65,55,54,44,40,78,49,33,30.42,30.33,14,3,14,0.00
2013-4-9,76,66,58,59,50,46,86,57,35,30.45,30.36,14,2,14,0.00
2013-4-10,77,68,60,68,50,43,98,58,32,30.39,30.27,16,3,16,0.00
2013-4-11,78,69,59,66,54,48,96,62,35,30.27,30.15,13,3,13,0.00
2013-4-12,73,67,64,70,63,55,98,88,53,30.09,29.74,13,4,13,1.10
2013-4-13,68,60,49,63,42,34,97,56,34,30.00,29.74,13,4,13,0.00
2013-4-14,73,62,45,60,42,36,94,51,32,30.12,30.00,10,2,10,0.00
2013-4-15,68,65,60,58,49,40,81,58,39,30.21,29.97,23,4,23,0.47
2013-4-16,75,66,59,64,52,41,98,65,33,30.27,30.15,12,3,12,0.00
2013-4-17,75,65,53,62,48,44,94,56,34,30.24,30.18,9,2,9,0.00
2013-4-18,75,67,56,64,50,44,98,58,34,30.21,30.09,12,4,12,0.00
2013-4-19,78,71,66,68,58,50,91,66,43,30.12,29.91,24,7,24,0.04
2013-4-20,71,58,50,65,43,31,98,61,37,30.24,29.88,15,3,17,1.42
2013-4-21,62,53,44,43,31,24,83,46,34,30.45,30.21,20,5,20,0.00
2013-4-22,57,52,47,50,40,26,92,64,43,30.39,30.12,22,9,22,0.08
2013-4-23,66,58,50,52,41,35,96,58,34,30.18,30.06,17,5,17,0.00
2013-4-24,72,59,44,55,44,39,95,61,34,30.18,30.06,13,3,13,0.00
2013-4-25,70,63,50,63,46,34,90,56,35,30.27,30.06,14,3,14,0.04
2013-4-26,69,57,42,48,35,27,84,47,33,30.39,30.24,17,4,17,0.00
2013-4-27,70,61,50,47,38,30,72,44,32,30.36,30.27,15,4,15,0.00
2013-4-28,71,64,52,45,37,30,49,37,32,30.27,30.12,10,4,10,0.00
2013-4-29,67,64,61,63,53,42,97,70,42,30.12,29.97,13,3,13,0.71
2013-4-30,73,67,62,64,51,43,98,60,36,30.12,29.97,11,3,11,0.00
2013-5-1,73,65,59,61,50,42,85,61,34,30.24,30.09,15,4,15,0.04
2013-5-2,70,63,58,61,49,39,94,62,34,30.27,30.18,16,6,16,0.04
2013-5-3,69,61,56,53,40,31,84,49,33,30.18,30.12,23,7,23,0.00
2013-5-4,66,59,54,55,46,37,95,65,36,30.12,30.03,18,6,18,0.08
2013-5-5,72,63,55,58,50,43,87,64,36,30.03,29.94,15,5,15,0.00
2013-5-6,69,65,62,65,52,45,98,63,43,29.97,29.88,15,5,15,0.59
2013-5-7,71,63,54,63,46,39,98,59,34,29.97,29.85,12,3,12,0.00
2013-5-8,74,65,51,59,45,40,87,51,32,30.03,29.94,17,3,17,0.00
2013-5-9,78,68,58,57,48,44,77,50,32,30.12,29.97,11,2,11,0.00
2013-5-10,79,70,58,68,53,45,94,58,32,30.12,30.06,11,3,11,0.00
2013-5-11,80,73,68,64,55,47,83,56,39,30.06,29.88,17,4,17,0.00
2013-5-12,82,73,64,63,49,35,82,46,30,29.97,29.80,14,4,14,0.00
2013-5-13,72,62,47,40,34,24,42,35,32,30.12,29.97,18,5,18,0.00
2013-5-14,72,61,41,41,34,24,62,37,32,30.21,30.12,11,3,11,0.00
2013-5-15,76,70,62,50,45,35,54,42,33,30.15,29.97,16,4,16,0.00
2013-5-16,79,69,65,58,53,49,75,57,37,29.97,29.94,8,2,8,0.00
2013-5-19,82,75,67,69,54,50,96,48,33,30.18,30.12,10,4,10,0.00
2013-5-20,82,75,69,61,54,49,75,50,33,30.18,30.09,17,4,17,0.00
2013-5-21,82,75,70,66,58,50,81,59,33,30.09,30.03,13,4,13,0.00
2013-5-22,84,76,71,68,58,50,85,57,34,30.09,30.00,15,4,15,0.00
2013-5-23,80,73,70,69,63,54,90,73,42,30.03,29.85,10,2,10,0.31
2013-5-24,81,72,58,68,50,31,93,51,30,30.12,29.77,15,5,15,0.00
2013-5-25,74,60,46,42,33,26,51,37,31,30.21,30.12,13,3,13,0.00
2013-5-26,76,63,48,49,39,32,83,45,31,30.24,30.12,10,2,10,0.00
2013-5-27,77,66,46,60,42,36,95,46,31,30.27,30.21,10,3,10,0.00
2013-5-28,81,72,55,64,50,44,92,49,32,30.30,30.21,12,3,12,0.00
2013-5-29,84,75,64,70,53,47,93,49,30,30.30,30.21,11,3,11,0.00
2013-5-30,86,75,60,70,55,50,97,54,32,30.30,30.24,11,3,11,0.00
2013-5-31,85,76,64,73,58,50,98,56,33,30.27,30.18,11,3,11,0.00
2013-6-1,85,76,68,72,58,49,91,57,31,30.21,30.12,14,3,14,0.00
2013-6-2,85,78,72,68,57,51,80,51,32,30.12,30.00,14,4,14,0.00
2013-6-3,83,74,69,73,66,57,94,77,46,30.03,29.88,17,3,17,0.47
2013-6-4,82,74,68,72,59,48,98,65,36,30.12,29.94,13,3,13,0.00
2013-6-5,81,73,65,59,48,43,75,44,30,30.15,30.06,17,4,17,0.00
2013-6-6,80,74,68,71,60,48,91,62,41,30.09,29.91,15,4,15,0.08
2013-6-7,84,77,74,75,63,52,98,66,40,29.91,29.65,25,7,25,0.63
2013-6-8,85,78,73,73,66,58,89,67,40,30.15,29.91,15,4,15,0.00
2013-6-9,86,78,74,75,65,56,93,66,38,30.21,30.12,11,3,11,0.00
2013-6-10,85,78,72,73,63,56,88,63,38,30.18,30.03,16,4,17,0.04
2013-6-11,84,78,74,74,60,52,91,56,36,30.06,29.91,13,3,232,0.00
2013-6-12,91,81,68,74,60,51,95,54,28,30.00,29.91,11,2,11,0.00
2013-6-13,90,81,70,79,64,46,95,60,30,29.94,29.68,17,4,17,0.47
2013-6-14,80,72,62,67,51,40,94,53,30,30.03,29.71,14,4,14,0.16
2013-6-15,86,72,55,65,47,41,89,44,29,30.15,30.03,11,2,11,0.00
2013-6-16,85,78,69,56,49,46,59,37,30,30.18,30.09,14,3,14,0.00
2013-6-17,86,79,73,60,54,46,57,43,32,30.12,30.03,15,4,15,0.00
2013-6-18,85,78,73,74,65,54,93,65,35,30.06,29.85,13,3,13,0.35
2013-6-19,77,72,68,71,60,50,97,67,40,30.12,29.88,10,3,10,0.55
2013-6-20,82,74,66,64,50,43,90,46,30,30.21,30.09,15,4,15,0.00
2013-6-21,83,73,66,70,60,49,92,66,33,30.21,30.15,13,4,13,0.35
2013-6-22,78,74,70,72,66,58,98,76,53,30.21,30.15,14,5,14,0.55
2013-6-23,86,78,72,76,65,55,93,66,36,30.24,30.18,10,3,10,0.00
2013-6-24,85,78,74,76,66,52,88,69,35,30.24,30.12,11,2,11,0.28
2013-6-25,87,79,71,73,64,52,87,63,37,30.18,30.03,11,2,11,0.08
2013-6-26,87,81,75,75,64,54,92,59,33,30.06,29.97,15,3,15,0.00
2013-6-27,87,80,72,74,63,54,84,57,36,29.97,29.80,13,4,13,0.00
2013-6-28,87,81,76,73,67,59,83,64,41,29.83,29.68,14,4,14,0.04
2013-6-29,82,79,76,74,66,59,85,65,47,29.83,29.65,17,5,17,0.00
2013-6-30,82,77,72,76,69,60,96,79,49,29.94,29.77,13,4,13,0.87
2013-7-1,79,76,73,74,70,60,91,84,55,30.09,29.88,13,4,13,0.55
2013-7-2,88,81,72,77,65,58,96,62,38,30.24,30.09,13,5,13,0.24
2013-7-3,88,81,74,79,66,57,94,64,36,30.30,30.21,11,4,12,0.24
2013-7-4,88,82,76,72,62,54,80,53,33,30.30,30.24,11,4,11,0.00
2013-7-5,89,82,76,75,62,54,87,54,33,30.30,30.21,9,3,9,0.00
2013-7-6,88,81,75,70,59,53,76,49,31,30.27,30.18,10,3,10,0.00
2013-7-7,88,80,70,72,56,52,84,46,31,30.21,30.12,11,3,11,0.00
2013-7-8,87,80,74,69,58,51,76,48,30,30.21,30.15,11,2,13,0.00
2013-7-9,88,80,75,71,62,52,81,55,29,30.24,30.15,13,3,13,0.00
2013-7-10,89,82,75,74,60,54,83,50,32,30.18,30.06,14,4,14,0.00
2013-7-11,89,81,75,72,62,53,85,56,32,30.06,29.94,17,4,17,0.04
2013-7-12,79,75,72,75,68,58,98,78,53,30.03,29.91,14,2,14,1.42
2013-7-13,86,78,73,77,65,54,98,68,33,30.24,30.00,17,5,17,0.71
2013-7-14,86,81,76,70,60,52,78,51,32,30.30,30.21,13,5,13,0.00
2013-7-15,88,80,73,76,62,51,95,58,30,30.33,30.27,12,3,13,0.00
2013-7-16,92,82,71,78,60,52,95,51,29,30.30,30.21,9,2,9,0.00
2013-7-18,82,80,80,64,60,57,58,50,43,30.12,30.09,8,1,8,0.00
2013-7-19,89,83,76,71,61,54,77,50,33,30.15,30.06,15,3,15,0.00
2013-7-20,90,82,77,66,58,52,67,45,31,30.09,30.00,17,4,17,0.00
2013-7-21,86,81,76,73,62,54,82,55,35,30.03,29.97,11,3,11,0.08
2013-7-22,88,81,75,74,66,56,89,63,35,30.00,29.88,12,2,12,0.00
2013-7-23,86,80,76,72,64,56,84,61,37,29.91,29.77,10,3,13,0.00
2013-7-24,91,82,74,73,63,54,85,56,30,29.83,29.74,11,2,11,0.00
2013-7-25,88,82,74,67,55,52,79,39,30,29.97,29.80,12,4,12,0.00
2013-7-27,85,80,77,62,56,51,59,45,32,30.00,29.97,13,4,13,0.00
2013-7-28,89,82,75,72,61,52,79,53,30,30.03,29.88,14,3,14,0.00
2013-7-29,88,81,76,73,65,56,83,61,34,30.12,30.00,13,2,13,0.00
2013-7-30,84,78,74,62,57,51,66,48,35,30.15,30.15,9,1,9,0.00
2013-7-31,85,79,72,74,56,48,96,48,30,30.15,30.03,11,3,11,0.00
2013-8-1,84,77,70,75,63,56,95,63,39,30.03,29.91,10,2,10,0.55
2013-8-2,89,81,74,72,63,54,83,57,32,30.06,29.91,15,3,15,0.00
2013-8-3,90,82,78,75,64,54,84,56,31,30.06,29.94,11,3,11,0.00
2013-8-4,88,79,66,74,59,49,89,54,31,30.03,29.88,16,2,16,0.00
2013-8-5,83,68,62,69,56,45,93,71,29,30.09,30.00,8,1,10,0.00
2013-8-11,82,80,78,73,67,61,80,67,51,30.09,30.03,6,1,6,0.00
2013-8-12,93,82,75,77,66,56,91,63,30,30.06,29.97,11,2,11,0.04
2013-8-13,91,82,73,79,68,56,93,66,32,29.97,29.83,14,2,14,0.04
2013-8-14,79,74,68,74,58,46,96,62,37,30.06,29.80,16,3,16,0.31
2013-8-15,69,66,64,67,59,46,98,79,45,30.12,30.03,11,2,11,1.06
2013-8-16,74,70,66,69,61,52,98,75,48,30.15,30.03,11,3,11,0.43
2013-8-17,78,73,68,75,70,57,98,89,56,30.15,30.06,13,2,13,0.87
2013-8-18,89,79,72,79,64,54,98,65,31,30.21,30.12,8,1,8,0.39
2013-8-19,84,75,72,77,70,55,98,85,41,30.18,30.09,11,2,11,0.87
2013-8-20,85,77,72,76,64,55,98,68,37,30.18,30.09,12,2,232,0.39
2013-8-21,89,79,71,76,63,53,98,62,31,30.24,30.12,10,2,10,0.39
2013-8-22,87,79,69,75,60,55,92,54,35,30.15,30.03,8,2,8,0.39
2013-8-23,90,79,71,75,62,53,91,60,29,30.06,29.91,17,2,17,0.39
2013-8-24,82,74,67,68,54,44,94,55,30,30.24,30.00,16,4,16,0.39
2013-8-25,81,71,62,57,48,43,72,45,30,30.33,30.24,15,4,15,0.39
2013-8-26,85,72,62,62,50,44,87,49,29,30.30,30.12,10,2,10,0.39
2013-8-27,85,75,62,68,51,45,91,48,29,30.15,30.00,11,2,11,0.39
2013-8-28,86,78,73,69,56,49,74,48,32,30.03,29.91,9,2,9,0.39
2013-8-29,89,80,72,66,57,53,67,47,30,30.00,29.85,15,3,15,0.39
2013-8-30,85,76,66,69,57,49,93,57,31,30.03,29.97,13,4,13,0.39
2013-8-31,87,78,67,75,60,52,95,59,31,30.00,29.91,10,2,10,0.39
2013-9-1,88,81,75,75,66,56,91,64,33,29.97,29.85,14,3,14,0.39
2013-9-2,87,80,73,80,68,57,98,70,39,29.91,29.83,13,3,13,0.47
2013-9-3,87,78,71,75,65,52,92,66,32,29.94,29.83,14,2,14,0.39
2013-9-4,85,76,68,73,61,50,98,64,34,30.09,29.91,10,2,10,0.39
2013-9-5,89,76,68,78,64,53,97,72,31,30.09,30.03,12,1,12,1.22
2013-9-6,86,74,67,74,59,50,98,64,30,30.12,30.03,15,3,15,0.39
2013-9-7,82,72,63,61,48,41,81,46,30,30.09,30.00,12,2,12,0.39
2013-9-8,85,73,59,69,53,47,91,53,30,30.00,29.91,10,1,10,0.39
2013-9-9,85,76,67,72,57,48,93,56,30,30.15,30.00,13,2,13,0.39
2013-9-10,87,76,68,72,58,48,92,57,29,30.24,30.15,12,2,12,0.39
2013-9-11,86,75,66,72,57,48,96,59,29,30.21,30.12,10,2,10,0.39
2013-9-12,88,77,66,75,57,50,94,55,29,30.12,29.85,11,2,11,0.00
2013-9-13,88,79,70,58,53,49,65,42,28,29.85,29.74,9,2,9,0.00
2013-9-14,79,72,66,53,47,42,62,43,31,30.12,29.83,15,4,15,0.00
2013-9-15,82,71,62,62,50,44,91,51,30,30.21,30.12,10,2,10,0.00
2013-9-16,88,73,64,75,59,49,94,65,29,30.15,30.06,12,1,12,1.06
2013-9-17,77,69,59,61,46,37,78,45,32,30.27,30.12,13,5,13,0.00
2013-9-18,77,66,56,51,42,38,75,44,31,30.27,30.15,11,4,11,0.00
2013-9-19,80,66,56,58,45,38,83,50,30,30.18,30.09,11,2,11,0.00
2013-9-20,80,70,60,63,50,44,89,54,31,30.09,29.97,6,1,6,0.00
2013-9-21,80,72,65,65,57,48,80,62,34,29.97,29.77,10,1,10,0.00
2013-9-22,78,72,68,74,62,51,95,73,49,29.85,29.68,16,4,16,0.75
2013-9-23,74,66,57,53,43,36,73,44,32,30.09,29.85,15,3,15,0.00
2013-9-24,75,63,50,56,43,38,86,50,31,30.09,29.97,11,2,232,0.00
2013-9-25,73,64,54,57,44,39,87,52,33,29.97,29.85,10,2,10,0.00
2013-9-26,78,67,60,62,48,42,90,54,31,30.00,29.83,12,3,12,0.08
2013-9-27,76,67,61,61,46,37,88,51,31,30.12,29.97,16,5,16,0.00
2013-9-28,76,68,61,52,44,40,69,44,31,30.15,30.09,15,6,15,0.00
2013-9-29,78,66,59,58,50,42,83,58,31,30.12,30.00,13,3,13,0.00
2013-9-30,77,63,54,60,45,34,92,57,31,30.09,30.00,10,2,10,0.00
2013-10-1,80,64,50,62,43,38,88,51,30,30.12,30.03,9,2,9,0.00
2013-10-2,86,70,56,65,49,43,89,53,29,30.15,30.06,9,2,9,0.00
2013-10-3,85,71,59,69,53,46,93,59,29,30.15,30.09,9,1,232,0.00
2013-10-4,84,71,60,72,54,48,98,61,30,30.15,30.12,10,1,10,0.00
2013-10-5,86,72,61,73,55,46,95,59,29,30.15,30.09,8,1,8,0.00
2013-10-6,83,73,63,73,57,49,98,61,31,30.12,30.00,11,3,11,0.12
2013-10-7,85,77,72,70,61,51,88,60,32,30.00,29.88,13,4,13,0.28
2013-10-8,72,65,62,68,62,58,98,91,82,30.06,29.91,19,6,19,2.83
2013-10-9,66,63,61,65,62,60,98,97,93,30.06,29.88,21,7,21,1.34
2013-10-10,64,61,60,63,57,52,98,87,71,29.91,29.85,15,6,15,0.04
2013-10-11,67,63,59,62,56,50,97,80,56,29.97,29.85,11,3,11,0.00
2013-10-12,69,66,62,64,57,50,92,76,52,30.03,29.94,8,1,8,0.00
2013-10-13,79,70,65,66,59,48,94,72,34,30.12,30.03,10,3,10,0.00
2013-10-14,71,69,66,65,53,48,85,57,45,30.15,30.09,14,6,14,0.00
2013-10-15,71,66,63,62,56,48,87,71,44,30.12,30.00,12,5,12,0.00
2013-10-16,74,69,66,63,57,49,88,69,42,30.00,29.94,10,3,10,0.00
2013-10-17,78,68,59,66,54,45,92,64,32,29.97,29.91,8,1,9,0.00
2013-10-18,78,70,67,67,56,46,98,64,34,30.03,29.88,10,2,10,0.16
2013-10-19,75,70,66,75,68,66,98,93,84,29.97,29.88,6,0,6,0.47
2013-10-20,69,63,54,66,43,36,91,51,33,30.09,29.88,16,3,16,0.00
2013-10-21,69,59,48,54,42,36,90,56,33,30.12,30.00,6,1,6,0.00
2013-10-22,67,61,56,56,44,36,81,54,37,30.00,29.83,6,0,6,0.00
2013-10-23,73,62,52,63,46,27,92,62,32,29.94,29.68,15,2,15,0.31
2013-10-24,62,49,40,33,27,22,59,42,34,30.15,29.94,12,2,12,0.00
2013-10-25,59,47,34,37,26,17,69,45,35,30.33,30.15,15,3,15,0.00
2013-10-26,64,46,33,35,28,19,77,50,34,30.33,30.09,8,1,8,0.00
2013-10-27,67,53,40,37,31,24,63,45,33,30.15,30.03,8,2,8,0.00
2013-10-28,72,57,42,54,39,34,88,56,32,30.24,30.12,8,0,8,0.00
2013-10-29,73,60,48,57,42,37,89,55,32,30.30,30.21,8,2,8,0.00
2013-10-30,74,61,51,59,44,36,91,57,32,30.30,30.18,8,1,8,0.00
2013-10-31,74,65,53,60,51,46,92,63,41,30.24,30.03,15,3,15,0.00
2013-11-1,75,72,68,66,59,48,83,64,42,30.03,29.80,14,4,14,0.00
2013-11-2,72,65,58,67,56,41,95,76,42,29.88,29.71,10,2,10,1.18
2013-11-3,64,54,45,51,32,25,73,43,34,30.30,29.88,13,4,13,0.00
2013-11-4,59,48,36,33,28,22,66,45,35,30.45,30.30,21,4,21,0.00
2013-11-5,72,60,47,44,39,33,75,49,32,30.42,30.36,13,5,13,0.00
2013-11-6,68,62,55,64,53,42,98,72,45,30.36,30.12,11,4,11,0.16
2013-11-7,70,65,54,69,60,28,98,85,36,30.12,29.88,13,2,13,0.16
2013-11-8,58,48,35,30,25,19,62,40,35,30.27,30.00,16,4,16,0.00
2013-11-9,62,49,34,41,31,23,81,53,34,30.33,30.18,8,1,8,0.00
2013-11-10,71,57,48,43,36,29,71,46,32,30.18,30.06,10,2,10,0.00
2013-11-11,62,50,38,33,27,20,67,42,34,30.30,30.12,12,3,12,0.00
2013-11-12,67,48,35,50,30,14,84,54,33,30.30,29.97,24,4,24,0.00
2013-11-13,46,35,26,24,15,6,68,43,38,30.47,30.30,17,4,17,0.00
2013-11-14,59,38,23,31,18,6,58,43,35,30.47,30.33,9,1,9,0.00
2013-11-15,66,52,34,54,33,17,80,50,34,30.36,30.21,10,1,10,0.20
2013-11-16,73,64,58,66,53,43,98,73,35,30.24,30.15,8,2,8,0.04
2013-11-17,76,64,55,67,56,43,98,77,32,30.18,29.97,12,2,12,0.04
2013-11-18,78,68,60,75,58,32,98,74,35,29.97,29.80,16,2,16,0.04
2013-11-19,60,50,40,32,26,18,50,38,35,30.24,29.88,17,4,17,0.04
2013-11-20,58,50,42,34,27,21,53,42,35,30.36,30.21,14,6,14,0.04
2013-11-21,66,57,50,55,45,34,93,67,39,30.39,30.33,11,4,11,0.04
2013-11-22,72,62,53,62,49,41,98,65,34,30.36,30.09,7,1,7,0.04
2013-11-23,66,59,48,58,49,24,85,71,38,30.09,30.00,12,3,12,0.04
2013-11-24,48,36,24,24,14,5,42,40,37,30.47,30.06,20,5,20,0.04
2013-11-25,45,33,22,21,12,2,49,41,38,30.53,30.30,10,2,12,0.04
2013-11-26,68,56,37,68,49,20,98,76,36,30.33,29.65,17,5,17,1.14
2013-11-27,70,55,34,69,51,14,98,87,42,30.06,29.41,19,6,19,0.67
2013-11-28,46,34,28,22,13,8,51,42,38,30.45,30.06,18,3,18,0.04
2013-11-29,54,41,30,28,20,14,66,45,36,30.53,30.42,11,3,11,0.04
2013-11-30,58,46,34,31,26,14,62,45,36,30.53,30.30,15,5,15,0.04
2013-12-1,59,50,43,48,40,30,90,70,38,30.30,30.00,9,2,9,0.08
2013-12-2,56,50,42,50,37,24,97,67,37,30.00,29.77,8,2,8,0.04
2013-12-3,60,47,34,41,29,22,79,51,35,30.00,29.83,6,1,6,0.04
2013-12-4,65,59,50,64,55,36,97,87,58,30.12,29.97,6,0,6,0.43
2013-12-5,72,63,52,70,56,49,98,80,44,30.15,30.09,9,1,9,0.04
2013-12-6,74,68,65,68,59,49,96,75,41,30.18,30.09,10,2,10,0.04
2013-12-7,68,54,42,66,50,0,98,86,68,30.36,30.09,15,4,15,0.43
2013-12-8,46,43,41,41,38,30,93,82,61,30.36,30.21,15,5,15,0.12
2013-12-9,68,54,43,67,50,38,98,86,57,30.21,30.06,9,0,9,0.04
2013-12-10,66,55,38,64,48,28,98,79,54,30.30,29.85,17,3,17,0.16
2013-12-11,52,39,30,31,20,14,77,48,36,30.45,30.27,13,2,13,0.00
2013-12-12,48,37,27,26,18,8,73,47,37,30.36,30.21,17,3,17,0.00
2013-12-13,51,36,24,28,18,10,70,49,37,30.39,30.27,8,1,8,0.00
2013-12-14,65,53,32,62,35,17,92,53,35,30.30,29.77,14,4,14,0.94
2013-12-15,63,53,38,61,43,25,97,72,40,30.03,29.68,12,2,12,0.08
2013-12-16,58,43,33,30,26,21,75,52,35,30.18,30.03,10,2,232,0.00
2013-12-17,59,51,38,40,32,25,80,51,35,30.15,29.94,10,2,10,0.00
2013-12-18,54,43,28,28,20,10,49,40,36,30.30,29.97,13,3,13,0.00
2013-12-19,58,42,28,37,24,11,72,50,35,30.33,30.24,10,0,10,0.00
2013-12-20,69,55,41,54,42,31,94,65,37,30.27,30.15,8,1,8,0.00
2013-12-21,70,64,57,68,59,48,98,85,52,30.18,30.12,11,2,11,0.00
2013-12-22,75,69,66,66,60,50,92,76,43,30.18,30.12,13,4,13,0.04
2013-12-23,71,67,60,69,62,52,98,84,57,30.15,30.03,14,4,14,0.31
2013-12-24,60,44,32,55,30,13,89,61,37,30.39,30.03,15,4,15,0.28
2013-12-25,44,37,29,20,15,9,45,41,38,30.47,30.36,13,4,13,0.00
2013-12-26,44,41,38,38,31,19,85,68,45,30.36,30.18,11,3,11,0.04
2013-12-27,53,42,32,30,22,16,71,45,36,30.39,30.30,13,3,13,0.00
2013-12-28,62,46,31,34,26,17,77,47,34,30.36,30.12,8,2,8,0.00
2013-12-29,66,62,52,63,51,27,91,69,37,30.12,29.71,24,5,24,0.20
2013-12-30,60,50,42,51,36,0,93,64,8,30.09,29.88,8,1,8,0.00
2013-12-31,55,45,34,39,27,17,78,52,36,30.33,30.06,13,2,13,0.00
2014-1-1,54,43,31,32,24,0,66,48,36,30.39,30.12,6,0,6,0.00
2014-1-2,60,50,45,59,47,32,98,90,57,30.12,29.50,13,1,13,0.79